createdAt,value
2022-11-09T00:01:25.527Z,75.80
2022-11-09T00:04:11.236Z,78.10
2022-11-09T00:06:56.936Z,74.22
2022-11-09T00:09:43.644Z,77.25
2022-11-09T00:12:29.470Z,76.90
2022-11-09T00:15:15.130Z,83.95
2022-11-09T00:18:02.833Z,83.20
2022-11-09T00:20:49.549Z,74.65
2022-11-09T00:23:36.225Z,77.97
2022-11-09T00:26:24.366Z,73.57
2022-11-09T00:29:10.263Z,80.82
2022-11-09T00:31:55.908Z,84.38
2022-11-09T00:34:41.463Z,82.15
2022-11-09T00:37:30.881Z,80.10
2022-11-09T00:40:17.008Z,75.00
2022-11-09T00:43:03.157Z,96.28
2022-11-09T00:45:48.955Z,91.70
2022-11-09T00:48:35.607Z,93.18
2022-11-09T00:51:21.115Z,95.38
2022-11-09T00:54:08.198Z,93.88
2022-11-09T00:56:54.557Z,94.15
2022-11-09T00:59:40.707Z,94.82
2022-11-09T01:02:26.509Z,93.22
2022-11-09T01:05:12.601Z,97.22
2022-11-09T01:07:58.829Z,103.10
2022-11-09T01:10:49.473Z,94.32
2022-11-09T01:13:36.484Z,104.75
2022-11-09T01:16:23.590Z,96.60
2022-11-09T01:19:09.354Z,94.32
2022-11-09T01:21:55.421Z,102.10
2022-11-09T01:24:40.872Z,100.10
2022-11-09T01:27:26.981Z,101.28
2022-11-09T01:30:13.149Z,100.00
2022-11-09T01:32:58.978Z,99.78
2022-11-09T01:35:45.360Z,104.35
2022-11-09T01:38:30.850Z,97.40
2022-11-09T01:41:28.111Z,103.05
2022-11-09T01:44:13.347Z,103.78
2022-11-09T01:47:11.774Z,103.15
2022-11-09T01:50:01.033Z,107.15
2022-11-09T01:52:49.165Z,109.82
2022-11-09T01:55:35.689Z,112.15
2022-11-09T01:58:28.793Z,107.55
2022-11-09T02:01:17.743Z,108.00
2022-11-09T02:04:16.805Z,101.22
2022-11-09T02:07:04.516Z,108.47
2022-11-09T02:09:54.120Z,116.25
2022-11-09T02:12:40.425Z,109.32
2022-11-09T02:15:27.057Z,112.80
2022-11-09T02:18:12.953Z,120.75
2022-11-09T02:20:59.340Z,116.80
2022-11-09T02:23:45.392Z,108.93
2022-11-09T02:26:53.194Z,118.72
2022-11-09T02:29:44.108Z,118.25
2022-11-09T02:32:30.619Z,111.40
2022-11-09T02:35:17.791Z,114.05
2022-11-09T02:38:03.828Z,110.28
2022-11-09T02:40:52.585Z,107.68
2022-11-09T02:43:39.592Z,115.10
2022-11-09T02:46:31.390Z,103.35
2022-11-09T02:49:17.996Z,110.15
2022-11-09T02:52:04.783Z,115.70
2022-11-09T02:54:50.632Z,117.93
2022-11-09T02:57:36.422Z,111.45
2022-11-09T03:00:23.235Z,107.70
2022-11-09T03:03:09.565Z,111.43
2022-11-09T03:05:55.505Z,113.40
2022-11-09T03:08:41.946Z,113.30
2022-11-09T03:11:28.982Z,115.57
2022-11-09T03:14:15.306Z,111.60
2022-11-09T03:17:07.209Z,112.68
2022-11-09T03:19:54.166Z,110.70
2022-11-09T03:22:40.348Z,123.30
2022-11-09T03:25:28.128Z,120.10
2022-11-09T03:28:15.049Z,114.95
2022-11-09T03:31:03.593Z,119.50
2022-11-09T03:33:50.361Z,111.60
2022-11-09T03:36:36.177Z,116.43
2022-11-09T03:39:21.910Z,123.05
2022-11-09T03:42:07.861Z,112.45
2022-11-09T03:44:57.054Z,111.20
2022-11-09T03:47:46.982Z,122.72
2022-11-09T03:50:34.361Z,111.22
2022-11-09T03:53:20.145Z,112.32
2022-11-09T03:56:07.225Z,111.55
2022-11-09T03:58:52.365Z,117.07
2022-11-09T04:01:38.543Z,112.05
2022-11-09T04:04:24.664Z,116.80
2022-11-09T04:07:11.566Z,109.82
2022-11-09T04:09:58.608Z,114.78
2022-11-09T04:12:44.441Z,111.28
2022-11-09T04:15:29.889Z,112.35
2022-11-09T04:18:18.374Z,112.82
2022-11-09T04:21:04.348Z,111.32
2022-11-09T04:23:50.559Z,109.20
2022-11-09T04:26:36.228Z,112.32
2022-11-09T04:29:22.213Z,105.63
2022-11-09T04:32:07.816Z,121.38
2022-11-09T04:34:53.764Z,99.45
2022-11-09T04:37:41.664Z,109.80
2022-11-09T04:40:29.455Z,113.10
2022-11-09T04:43:16.050Z,106.07
2022-11-09T04:46:05.156Z,100.30
2022-11-09T04:48:50.600Z,107.45
2022-11-09T04:51:36.940Z,103.65
2022-11-09T04:54:22.496Z,105.13
2022-11-09T04:57:08.585Z,106.50
2022-11-09T04:59:54.249Z,111.55
2022-11-09T05:02:41.072Z,104.43
2022-11-09T05:05:26.911Z,115.90
2022-11-09T05:08:12.706Z,106.32
2022-11-09T05:10:58.940Z,111.43
2022-11-09T05:13:44.864Z,98.97
2022-11-09T05:16:32.399Z,102.47
2022-11-09T05:19:17.877Z,108.63
2022-11-09T05:22:23.574Z,108.60
2022-11-09T05:25:10.172Z,112.28
2022-11-09T05:27:55.857Z,116.50
2022-11-09T05:30:41.713Z,117.68
2022-11-09T05:33:27.529Z,106.15
2022-11-09T05:36:13.198Z,106.53
2022-11-09T05:38:59.329Z,97.25
2022-11-09T05:41:44.967Z,116.47
2022-11-09T05:44:31.765Z,107.68
2022-11-09T05:47:19.105Z,105.88
2022-11-09T05:50:05.866Z,107.28
2022-11-09T05:52:54.308Z,115.88
2022-11-09T05:55:40.622Z,104.97
2022-11-09T05:58:26.273Z,106.22
2022-11-09T06:01:14.235Z,106.57
2022-11-09T06:04:00.006Z,110.97
2022-11-09T06:06:45.919Z,108.90
2022-11-09T06:09:32.794Z,112.68
2022-11-09T06:12:18.473Z,112.30
2022-11-09T06:15:04.332Z,108.15
2022-11-09T06:17:57.447Z,99.00
2022-11-09T06:20:43.911Z,107.60
2022-11-09T06:23:30.384Z,102.28
2022-11-09T06:26:15.962Z,108.25
2022-11-09T06:34:37.128Z,94.57
2022-11-09T06:37:22.840Z,103.15
2022-11-09T06:40:10.205Z,103.72
2022-11-09T06:43:00.113Z,97.97
2022-11-09T06:45:45.674Z,100.68
2022-11-09T06:48:32.773Z,99.65
2022-11-09T06:51:18.769Z,105.32
2022-11-09T06:54:04.304Z,94.88
2022-11-09T06:56:53.935Z,98.75
2022-11-09T06:59:39.791Z,96.32
2022-11-09T07:02:25.988Z,96.28
2022-11-09T07:05:12.244Z,99.85
2022-11-09T07:07:58.684Z,103.50
2022-11-09T07:10:45.542Z,97.43
2022-11-09T07:13:31.815Z,102.90
2022-11-09T07:16:18.192Z,103.30
2022-11-09T07:19:04.032Z,115.18
2022-11-09T07:21:50.396Z,105.97
2022-11-09T07:24:36.050Z,110.32
2022-11-09T07:27:27.313Z,113.20
2022-11-09T07:30:14.761Z,124.18
2022-11-09T07:33:21.095Z,112.75
2022-11-09T07:36:07.729Z,103.28
2022-11-09T07:38:53.841Z,112.25
2022-11-09T07:41:40.009Z,121.07
2022-11-09T07:44:26.249Z,117.95
2022-11-09T07:47:17.159Z,114.35
2022-11-09T07:50:04.538Z,114.78
2022-11-09T07:52:50.285Z,121.47
2022-11-09T07:55:37.580Z,120.93
2022-11-09T07:58:24.041Z,117.10
2022-11-09T08:01:10.736Z,121.43
2022-11-09T08:03:56.418Z,111.20
2022-11-09T08:06:42.047Z,121.28
2022-11-09T08:09:28.918Z,115.35
2022-11-09T08:12:14.562Z,116.43
2022-11-09T08:15:00.158Z,117.30
2022-11-09T08:17:46.094Z,120.35
2022-11-09T08:20:31.983Z,121.28
2022-11-09T08:23:19.005Z,136.98
2022-11-09T08:26:06.108Z,132.10
2022-11-09T08:28:51.780Z,127.82
2022-11-09T08:31:37.316Z,121.63
2022-11-09T08:34:22.917Z,121.13
2022-11-09T08:37:08.566Z,122.03
2022-11-09T08:39:54.060Z,122.75
2022-11-09T08:42:40.118Z,124.93
2022-11-09T08:45:25.976Z,125.28
2022-11-09T08:48:12.909Z,116.20
2022-11-09T08:51:00.234Z,114.63
2022-11-09T08:53:46.149Z,115.82
2022-11-09T08:56:32.061Z,118.15
2022-11-09T08:59:18.161Z,120.43
2022-11-09T09:02:05.025Z,117.18
2022-11-09T09:04:50.882Z,117.22
2022-11-09T09:07:36.646Z,116.22
2022-11-09T09:10:22.864Z,115.93
2022-11-09T09:13:08.697Z,115.90
2022-11-09T09:15:54.386Z,105.28
2022-11-09T09:18:40.008Z,110.55
2022-11-09T09:21:25.933Z,108.75
2022-11-09T09:24:12.935Z,97.43
2022-11-09T09:26:58.264Z,104.00
2022-11-09T09:29:43.893Z,97.10
2022-11-09T09:32:31.341Z,104.90
2022-11-09T09:35:17.464Z,97.20
2022-11-09T09:38:03.130Z,94.35
2022-11-09T09:41:02.795Z,101.00
2022-11-09T09:43:52.705Z,97.28
2022-11-09T09:46:44.098Z,109.38
2022-11-09T09:49:32.997Z,94.25
2022-11-09T09:52:39.150Z,92.80
2022-11-09T09:55:40.484Z,97.30
2022-11-09T09:58:32.909Z,93.22
2022-11-09T10:01:21.368Z,87.23
2022-11-09T10:04:23.769Z,98.88
2022-11-09T10:07:14.502Z,86.50
2022-11-09T10:10:35.973Z,105.13
2022-11-09T10:13:55.614Z,96.60
2022-11-09T10:17:01.629Z,91.80
2022-11-09T10:20:01.728Z,95.22
2022-11-09T10:23:10.802Z,97.60
2022-11-09T10:26:07.811Z,103.43
2022-11-09T10:29:15.538Z,94.97
2022-11-09T10:32:10.404Z,110.20
2022-11-09T10:35:14.500Z,111.72
2022-11-09T10:38:00.858Z,96.18
2022-11-09T10:40:58.990Z,107.10
2022-11-09T10:44:04.384Z,105.07
2022-11-09T10:47:14.764Z,93.97
2022-11-09T10:50:34.753Z,108.03
2022-11-09T10:53:39.387Z,106.68
2022-11-09T10:57:06.346Z,108.60
2022-11-09T11:00:17.374Z,114.60
2022-11-09T11:03:25.045Z,124.05
2022-11-09T11:06:31.655Z,112.93
2022-11-09T11:09:36.588Z,126.15
2022-11-09T11:12:43.272Z,114.32
2022-11-09T11:15:48.665Z,103.95
2022-11-09T11:18:53.068Z,115.38
2022-11-09T11:22:15.146Z,118.28
2022-11-09T11:25:22.440Z,108.53
2022-11-09T11:28:40.123Z,113.45
2022-11-09T11:31:45.783Z,99.60
2022-11-09T11:35:05.479Z,91.18
2022-11-09T11:38:38.008Z,91.32
2022-11-09T11:42:02.220Z,81.97
2022-11-09T11:49:00.871Z,76.45
2022-11-09T11:52:31.072Z,71.22
2022-11-09T11:55:39.154Z,69.45
2022-11-09T11:58:56.634Z,69.18
2022-11-09T12:02:29.716Z,69.47
2022-11-09T12:05:43.195Z,76.47
2022-11-09T12:09:26.694Z,69.20
2022-11-09T12:12:43.861Z,70.55
2022-11-09T12:15:49.331Z,65.82
2022-11-09T12:19:35.270Z,69.38
2022-11-09T12:22:48.938Z,66.57
2022-11-09T12:26:31.906Z,73.33
2022-11-09T12:30:18.324Z,64.90
2022-11-09T12:33:42.894Z,67.20
2022-11-09T12:37:13.695Z,66.07
2022-11-09T12:40:34.742Z,68.18
2022-11-09T12:43:51.256Z,70.82
2022-11-09T12:47:05.056Z,66.93
2022-11-09T12:50:18.497Z,71.15
2022-11-09T12:53:27.353Z,80.72
2022-11-09T12:56:37.173Z,67.72
2022-11-09T12:59:49.896Z,69.75
2022-11-09T13:03:00.582Z,65.20
2022-11-09T13:06:28.282Z,79.03
2022-11-09T13:09:44.454Z,69.57
2022-11-09T13:12:49.800Z,70.97
2022-11-09T13:16:33.293Z,68.78
2022-11-09T13:19:39.921Z,79.00
2022-11-09T13:22:45.617Z,75.80
2022-11-09T13:30:26.057Z,74.68
2022-11-09T13:33:31.752Z,67.95
2022-11-09T13:36:36.524Z,68.93
2022-11-09T13:39:41.449Z,69.90
2022-11-09T13:43:15.353Z,75.68
2022-11-09T13:46:33.676Z,72.63
2022-11-09T13:49:47.699Z,66.57
2022-11-09T13:52:55.862Z,63.03
2022-11-09T13:56:15.605Z,67.13
2022-11-09T13:59:28.809Z,73.25
2022-11-09T14:02:32.968Z,67.70
2022-11-09T14:05:39.423Z,74.43
2022-11-09T14:08:44.433Z,70.43
2022-11-09T14:11:58.024Z,69.80
2022-11-09T14:15:25.178Z,70.65
2022-11-09T14:18:50.830Z,78.72
2022-11-09T14:21:55.275Z,69.95
2022-11-09T14:25:03.831Z,72.90
2022-11-09T14:28:26.188Z,66.40
2022-11-09T14:31:31.152Z,75.60
2022-11-09T14:34:35.928Z,69.88
2022-11-09T14:37:45.136Z,79.97
2022-11-09T14:40:53.011Z,76.20
2022-11-09T14:43:59.789Z,79.28
2022-11-09T14:47:06.889Z,81.78
2022-11-09T14:50:17.841Z,82.95
2022-11-09T14:53:28.630Z,73.28
2022-11-09T14:56:35.772Z,79.72
2022-11-09T14:59:43.792Z,77.47
2022-11-09T15:02:48.835Z,81.93
2022-11-09T15:06:09.776Z,80.97
2022-11-09T15:09:18.109Z,81.00
2022-11-09T15:12:23.195Z,82.22
2022-11-09T15:15:32.371Z,89.97
2022-11-09T15:18:45.192Z,88.78
2022-11-09T15:21:50.156Z,80.90
2022-11-09T15:24:54.846Z,81.13
2022-11-09T15:28:08.614Z,88.75
2022-11-09T15:31:16.378Z,83.65
2022-11-09T15:34:24.623Z,80.88
2022-11-09T15:37:48.673Z,79.00
2022-11-09T15:40:52.785Z,98.03
2022-11-09T15:43:58.345Z,92.85
2022-11-09T15:47:04.059Z,86.55
2022-11-09T15:50:19.438Z,133.93
2022-11-09T15:53:24.097Z,96.40
2022-11-09T15:56:28.669Z,94.70
2022-11-09T15:59:37.091Z,91.80
2022-11-09T16:02:46.136Z,86.75
2022-11-09T16:05:50.439Z,94.70
2022-11-09T16:08:55.389Z,98.88
2022-11-09T16:12:00.170Z,94.25
2022-11-09T16:15:05.529Z,90.90
2022-11-09T16:18:11.403Z,102.00
2022-11-09T16:21:17.163Z,90.15
2022-11-09T16:24:21.961Z,100.32
2022-11-09T16:30:52.040Z,91.60
2022-11-09T16:33:56.399Z,90.78
2022-11-09T16:37:00.914Z,92.07
2022-11-09T16:40:11.966Z,89.32
2022-11-09T16:43:16.550Z,97.00
2022-11-09T16:46:24.352Z,93.13
2022-11-09T16:49:28.846Z,101.43
2022-11-09T16:52:33.245Z,94.85
2022-11-09T16:55:38.115Z,93.72
2022-11-09T16:58:42.464Z,103.38
2022-11-09T17:01:56.109Z,96.88
2022-11-09T17:05:00.727Z,97.60
2022-11-09T17:08:05.601Z,98.85
2022-11-09T17:11:12.512Z,101.93
2022-11-09T17:14:17.034Z,94.50
2022-11-09T17:17:22.912Z,99.03
2022-11-09T17:20:27.705Z,95.43
2022-11-09T17:23:33.799Z,98.70
2022-11-09T17:26:38.509Z,97.07
2022-11-09T17:29:43.017Z,103.57
2022-11-09T17:32:48.555Z,99.57
2022-11-09T17:36:00.953Z,105.20
2022-11-09T17:39:06.330Z,98.70
2022-11-09T17:42:10.907Z,99.13
2022-11-09T17:45:15.630Z,108.55
2022-11-09T17:48:20.219Z,103.65
2022-11-09T17:51:25.190Z,98.43
2022-11-09T17:54:35.482Z,102.70
2022-11-09T17:57:41.952Z,104.78
2022-11-09T18:00:46.708Z,104.78
2022-11-09T18:03:51.468Z,104.07
2022-11-09T18:06:56.245Z,106.05
2022-11-09T18:10:01.069Z,114.18
2022-11-09T18:13:06.908Z,130.00
2022-11-09T18:16:17.542Z,125.00
2022-11-09T18:19:22.470Z,125.57
2022-11-09T18:22:27.262Z,109.03
2022-11-09T18:25:31.864Z,117.53
2022-11-09T18:28:37.290Z,116.18
2022-11-09T18:31:41.960Z,119.10
2022-11-09T18:34:46.757Z,111.35
2022-11-09T18:37:51.528Z,111.03
2022-11-09T18:41:03.108Z,114.22
2022-11-09T18:44:07.786Z,111.38
2022-11-09T18:47:13.771Z,114.55
2022-11-09T18:50:19.529Z,112.90
2022-11-09T18:53:26.270Z,111.68
2022-11-09T18:56:30.565Z,112.88
2022-11-09T18:59:37.824Z,114.20
2022-11-09T19:02:42.478Z,113.35
2022-11-09T19:05:48.036Z,123.10
2022-11-09T19:09:11.401Z,117.30
2022-11-09T19:12:16.057Z,114.85
2022-11-09T19:15:20.823Z,110.85
2022-11-09T19:18:25.796Z,108.13
2022-11-09T19:21:57.011Z,111.90
2022-11-09T19:25:02.007Z,108.50
2022-11-09T19:28:06.459Z,113.75
2022-11-09T19:31:19.270Z,116.50
2022-11-09T19:34:23.953Z,106.50
2022-11-09T19:37:29.074Z,107.70
2022-11-09T19:40:38.559Z,116.10
2022-11-09T19:43:48.296Z,109.43
2022-11-09T19:46:52.952Z,108.40
2022-11-09T19:49:57.496Z,112.35
2022-11-09T19:53:02.175Z,109.45
2022-11-09T19:56:11.624Z,110.07
2022-11-09T19:59:17.115Z,110.00
2022-11-09T20:02:21.220Z,112.32
2022-11-09T20:05:25.878Z,119.22
2022-11-09T20:08:33.228Z,110.82
2022-11-09T20:11:56.224Z,117.40
2022-11-09T20:15:02.933Z,108.35
2022-11-09T20:18:07.693Z,103.80
2022-11-09T20:21:12.464Z,95.30
2022-11-09T20:24:17.275Z,98.10
2022-11-09T20:27:21.631Z,96.93
2022-11-09T20:30:26.389Z,97.72
2022-11-09T20:33:31.010Z,93.57
2022-11-09T20:36:35.901Z,87.45
2022-11-09T20:39:41.584Z,88.32
2022-11-09T20:42:46.221Z,83.57
2022-11-09T20:45:51.042Z,90.32
2022-11-09T20:48:56.144Z,88.40
2022-11-09T20:52:01.338Z,87.15
2022-11-09T20:55:07.522Z,94.47
2022-11-09T20:58:13.540Z,92.05
2022-11-09T21:01:25.010Z,82.75
2022-11-09T21:04:29.705Z,83.22
2022-11-09T21:07:34.557Z,90.85
2022-11-09T21:10:39.217Z,86.65
2022-11-09T21:13:44.360Z,83.57
2022-11-09T21:16:49.044Z,80.85
2022-11-09T21:19:53.488Z,92.18
2022-11-09T21:23:13.094Z,82.20
2022-11-09T21:26:36.033Z,86.25
2022-11-09T21:29:52.594Z,81.90
2022-11-09T21:32:56.967Z,84.15
2022-11-09T21:36:13.654Z,92.30
2022-11-09T21:39:18.512Z,92.50
2022-11-09T21:42:22.993Z,84.60
2022-11-09T21:45:27.426Z,94.43
2022-11-09T21:48:32.165Z,92.00
2022-11-09T21:51:38.438Z,86.35
2022-11-09T21:54:43.132Z,96.00
2022-11-09T21:57:50.998Z,94.90
2022-11-09T22:01:04.326Z,93.78
2022-11-09T22:04:09.632Z,89.47
2022-11-09T22:07:14.397Z,96.15
2022-11-09T22:10:18.804Z,94.35
2022-11-09T22:13:41.790Z,86.07
2022-11-09T22:16:46.530Z,81.50
2022-11-09T22:20:09.465Z,96.45
2022-11-09T22:23:13.727Z,88.65
2022-11-09T22:26:18.393Z,91.60
2022-11-09T22:29:23.211Z,87.25
2022-11-09T22:32:27.858Z,86.95
2022-11-09T22:35:32.305Z,87.03
2022-11-09T22:38:38.934Z,88.03
2022-11-09T22:41:43.450Z,83.60
2022-11-09T22:44:47.957Z,85.70
2022-11-09T22:47:52.501Z,81.13
2022-11-09T22:50:57.356Z,87.13
2022-11-09T22:54:01.837Z,81.18
2022-11-09T22:57:06.307Z,79.63
2022-11-09T23:00:14.074Z,81.90
2022-11-09T23:03:19.993Z,81.85
2022-11-09T23:06:25.410Z,80.10
2022-11-09T23:09:30.259Z,78.10
2022-11-09T23:12:35.039Z,82.32
2022-11-09T23:15:39.586Z,83.43
2022-11-09T23:18:56.128Z,79.05
2022-11-09T23:22:01.774Z,81.43
2022-11-09T23:25:25.744Z,83.30
2022-11-09T23:28:31.221Z,77.93
2022-11-09T23:31:36.003Z,77.40
2022-11-09T23:34:40.660Z,81.13
2022-11-09T23:37:45.255Z,82.00
2022-11-09T23:40:50.290Z,73.35
2022-11-09T23:43:56.174Z,78.80
2022-11-09T23:47:00.827Z,78.97
2022-11-09T23:50:06.083Z,79.82
2022-11-09T23:53:11.352Z,72.35
2022-11-09T23:56:15.778Z,79.05
2022-11-09T23:59:20.161Z,79.60
